Time;durP1;ratioP1;P1;durP2;ratioP2;P2;SDS_P1;SDS_P2;PMS_P1;PMS_P2;Temp;Humidity;BMP_temperature;BMP_pressure;BME280_temperature;BME280_humidity;BME280_pressure;Samples;Min_cycle;Max_cycle;Signal;HPM_P1;HPM_P2
2022/07/12 00:00:51;;;;;;;2.03;0.60;;;;;;;22.17;51.04;100968.06;5024712;28;20025;-71
2022/07/12 00:03:16;;;;;;;1.50;0.77;;;;;;;22.13;51.22;100966.34;5075221;28;20025;-71
2022/07/12 00:05:42;;;;;;;1.30;0.52;;;;;;;22.08;51.02;100973.06;5061583;28;20028;-72
2022/07/12 00:08:07;;;;;;;2.10;0.60;;;;;;;22.06;51.19;100961.28;5061699;28;20541;-72
2022/07/12 00:10:33;;;;;;;1.88;0.70;;;;;;;22.03;51.53;100962.00;5061252;28;20417;-72
2022/07/12 00:12:58;;;;;;;0.90;0.65;;;;;;;21.97;51.69;100958.63;5061037;28;20036;-72
2022/07/12 00:15:24;;;;;;;2.22;0.50;;;;;;;21.95;51.58;100957.34;5034406;28;20036;-72
2022/07/12 00:17:50;;;;;;;1.42;0.68;;;;;;;21.90;51.55;100958.44;5077075;28;20028;-72
2022/07/12 00:20:15;;;;;;;2.20;0.47;;;;;;;21.88;51.64;100966.44;5061400;28;20028;-72
2022/07/12 00:22:40;;;;;;;1.50;0.60;;;;;;;21.83;51.59;100956.22;5077392;28;20496;-72
2022/07/12 00:25:06;;;;;;;1.92;0.77;;;;;;;21.82;51.91;100959.41;5024673;28;20070;-72
2022/07/12 00:27:32;;;;;;;1.13;0.60;;;;;;;21.79;51.44;100965.78;5044457;28;20036;-72
2022/07/12 00:29:57;;;;;;;1.20;0.70;;;;;;;21.75;52.02;100962.84;5060108;28;20029;-72
2022/07/12 00:32:23;;;;;;;0.82;0.60;;;;;;;21.72;52.31;100957.09;5024501;28;20029;-72
2022/07/12 00:34:48;;;;;;;3.10;0.70;;;;;;;21.73;52.14;100953.06;5044126;28;20028;-72
2022/07/12 00:37:14;;;;;;;2.20;0.80;;;;;;;21.66;51.95;100953.69;5077110;28;20161;-72
2022/07/12 00:39:39;;;;;;;1.67;0.75;;;;;;;21.63;52.92;100960.06;5061064;28;20032;-72
2022/07/12 00:42:05;;;;;;;0.55;0.50;;;;;;;21.59;53.37;100948.66;5057901;28;20029;-72
2022/07/12 00:44:33;;;;;;;3.20;0.57;;;;;;;21.54;53.12;100948.91;5058000;28;20032;-72
2022/07/12 00:46:59;;;;;;;1.40;0.60;;;;;;;21.51;53.60;100941.16;5078322;28;20033;-72
2022/07/12 00:49:25;;;;;;;1.42;0.60;;;;;;;21.48;53.72;100946.66;5069199;28;20029;-72
2022/07/12 00:51:50;;;;;;;2.75;0.80;;;;;;;21.42;53.44;100943.28;5043213;28;20028;-72
2022/07/12 00:54:16;;;;;;;1.27;0.60;;;;;;;21.39;53.27;100941.16;5077231;28;20063;-72
2022/07/12 00:56:42;;;;;;;2.05;0.88;;;;;;;21.37;53.91;100935.06;5042776;28;20056;-72
2022/07/12 00:59:07;;;;;;;1.35;0.60;;;;;;;21.33;53.83;100942.56;5060785;28;20036;-72
2022/07/12 01:01:33;;;;;;;1.45;0.50;;;;;;;21.31;53.68;100931.66;5043766;28;20032;-72
2022/07/12 01:03:59;;;;;;;1.80;0.65;;;;;;;21.29;53.79;100931.16;5059909;28;20040;-72
2022/07/12 01:06:24;;;;;;;2.67;0.77;;;;;;;21.27;53.81;100946.81;5076867;28;20035;-72
2022/07/12 01:08:50;;;;;;;2.58;0.85;;;;;;;21.24;53.74;100948.38;5060135;28;20652;-72
2022/07/12 01:11:15;;;;;;;2.28;0.70;;;;;;;21.21;53.49;100949.06;5060279;28;20031;-72
2022/07/12 01:13:41;;;;;;;2.33;0.60;;;;;;;21.18;53.84;100953.44;5059995;28;20033;-72
2022/07/12 01:16:07;;;;;;;1.25;0.80;;;;;;;21.13;54.35;100950.84;5059954;28;20554;-72
2022/07/12 01:18:33;;;;;;;2.35;0.70;;;;;;;21.11;54.94;100958.84;5057538;28;20032;-72
2022/07/12 01:21:01;;;;;;;0.68;0.60;;;;;;;21.08;54.14;100967.22;5072499;28;20398;-72
2022/07/12 01:23:27;;;;;;;2.72;0.80;;;;;;;21.06;54.75;100970.41;5043903;28;20481;-72
2022/07/12 01:25:52;;;;;;;0.90;0.80;;;;;;;21.03;54.89;100968.25;5042984;28;20078;-72
2022/07/12 01:28:18;;;;;;;2.08;0.68;;;;;;;21.02;55.11;100966.63;5060023;28;20032;-72
2022/07/12 01:30:43;;;;;;;1.38;0.73;;;;;;;20.97;54.73;100964.03;5042478;28;20033;-72
2022/07/12 01:33:09;;;;;;;0.60;0.60;;;;;;;20.96;55.43;100960.41;5059679;28;20029;-72
2022/07/12 01:35:36;;;;;;;1.85;0.60;;;;;;;20.93;55.57;100954.63;5060108;28;20059;-72
2022/07/12 01:38:01;;;;;;;2.17;0.70;;;;;;;20.87;55.75;100956.88;5059297;28;20488;-72
2022/07/12 01:40:27;;;;;;;1.02;0.80;;;;;;;20.87;55.78;100950.41;5059817;28;20032;-72
2022/07/12 01:42:53;;;;;;;1.05;0.70;;;;;;;20.83;55.57;100949.47;5059869;28;20032;-72
2022/07/12 01:45:18;;;;;;;5.03;0.80;;;;;;;20.81;55.42;100948.97;5043034;28;20036;-72
2022/07/12 01:47:44;;;;;;;1.00;0.73;;;;;;;20.77;55.94;100946.03;5059181;28;20024;-72
2022/07/12 01:50:10;;;;;;;3.15;0.80;;;;;;;20.71;55.90;100942.63;5043041;28;20032;-72
2022/07/12 01:52:36;;;;;;;1.80;0.90;;;;;;;20.70;56.40;100949.47;5059831;28;20087;-72
2022/07/12 01:55:02;;;;;;;1.25;0.63;;;;;;;20.68;56.48;100949.00;5041984;28;20366;-72
2022/07/12 01:57:27;;;;;;;2.40;0.90;;;;;;;20.64;56.65;100952.84;5059507;28;20028;-72
2022/07/12 01:59:53;;;;;;;2.47;1.02;;;;;;;20.62;56.81;100944.75;5059223;28;20134;-72
2022/07/12 02:02:18;;;;;;;1.58;0.75;;;;;;;20.61;56.65;100951.56;5071983;28;20025;-72
2022/07/12 02:04:44;;;;;;;1.73;0.70;;;;;;;20.58;56.89;100954.28;5037558;28;20044;-72
2022/07/12 02:07:09;;;;;;;2.20;0.70;;;;;;;20.59;56.72;100962.41;5059217;28;20545;-72
2022/07/12 02:09:35;;;;;;;3.55;0.80;;;;;;;20.57;56.61;100958.28;5059066;28;20035;-72
2022/07/12 02:12:00;;;;;;;2.22;0.80;;;;;;;20.50;56.84;100967.28;5059023;28;20037;-72
2022/07/12 02:14:26;;;;;;;2.08;0.70;;;;;;;20.48;56.99;100967.63;5025180;28;20040;-72
2022/07/12 02:16:52;;;;;;;2.38;0.88;;;;;;;20.45;57.57;100970.34;5058979;28;20024;-72
2022/07/12 02:19:17;;;;;;;1.33;0.80;;;;;;;20.41;57.64;100972.19;5056288;28;20031;-72
2022/07/12 02:21:43;;;;;;;0.95;0.70;;;;;;;20.37;57.07;100974.91;5051487;28;20039;-72
2022/07/12 02:24:08;;;;;;;2.15;0.80;;;;;;;20.36;57.66;100980.88;5075387;28;20036;-72
2022/07/12 02:26:34;;;;;;;2.67;0.80;;;;;;;20.33;58.04;100990.03;5058876;28;20032;-72
2022/07/12 02:29:01;;;;;;;2.17;0.80;;;;;;;20.29;57.56;100998.38;5058882;28;20036;-72
2022/07/12 02:31:26;;;;;;;2.85;0.95;;;;;;;20.27;57.78;100995.09;5055598;28;20113;-72
2022/07/12 02:33:52;;;;;;;2.50;0.65;;;;;;;20.26;57.60;100997.09;5070792;28;20497;-72
2022/07/12 02:36:17;;;;;;;1.13;0.80;;;;;;;20.22;57.76;100998.94;5071763;28;20053;-72
2022/07/12 02:38:43;;;;;;;3.05;0.70;;;;;;;20.19;57.57;100994.00;5074635;28;20024;-72
2022/07/12 02:41:08;;;;;;;1.35;0.80;;;;;;;20.14;57.73;100997.03;5058703;28;20040;-72
2022/07/12 02:43:34;;;;;;;2.13;0.60;;;;;;;20.08;58.30;100995.59;5058396;28;20032;-72
2022/07/12 02:46:07;;;;;;;1.73;0.80;;;;;;;20.05;58.86;100999.94;5076530;28;20056;-72
2022/07/12 02:48:33;;;;;;;5.72;0.90;;;;;;;20.04;58.36;101003.13;5074459;28;20029;-72
2022/07/12 02:51:01;;;;;;;1.63;0.60;;;;;;;20.01;58.71;101001.81;5058657;28;20359;-72
2022/07/12 02:53:27;;;;;;;3.33;0.70;;;;;;;19.97;58.72;101003.66;5058390;28;20101;-72
2022/07/12 02:55:52;;;;;;;3.20;0.90;;;;;;;19.95;58.48;101003.22;5074730;28;20044;-72
2022/07/12 02:58:18;;;;;;;0.80;0.80;;;;;;;19.88;58.82;100994.47;5041769;28;20488;-72
2022/07/12 03:00:44;;;;;;;1.30;0.70;;;;;;;19.84;59.17;100997.16;5058246;28;20040;-72
2022/07/12 03:03:10;;;;;;;3.10;0.80;;;;;;;19.80;59.44;101001.81;5057945;28;20469;-72
2022/07/12 03:05:36;;;;;;;2.00;0.90;;;;;;;19.77;59.09;100999.69;5074765;28;20142;-72
2022/07/12 03:08:05;;;;;;;1.63;0.80;;;;;;;19.72;59.03;101002.72;5076275;28;20664;-72
2022/07/12 03:10:30;;;;;;;2.70;0.70;;;;;;;19.70;59.37;101001.44;5074655;28;20028;-72
2022/07/12 03:12:56;;;;;;;1.50;0.85;;;;;;;19.66;59.56;101003.28;5056798;28;20028;-72
2022/07/12 03:15:21;;;;;;;2.10;0.80;;;;;;;19.66;59.29;100995.66;5058164;28;20027;-72
2022/07/12 03:17:47;;;;;;;0.98;0.90;;;;;;;19.66;59.42;100998.47;5075476;28;20043;-72
2022/07/12 03:20:14;;;;;;;2.47;0.82;;;;;;;19.59;59.79;101003.81;5071892;28;20024;-72
2022/07/12 03:22:48;;;;;;;2.05;0.90;;;;;;;19.54;59.95;101004.00;5058380;28;20024;-72
2022/07/12 03:25:14;;;;;;;3.17;0.80;;;;;;;19.52;60.21;101011.97;5058769;28;20496;-72
2022/07/12 03:27:39;;;;;;;1.05;0.70;;;;;;;19.46;60.40;100999.28;5021625;28;20025;-72
2022/07/12 03:30:05;;;;;;;1.73;0.80;;;;;;;19.39;60.23;100999.81;5074738;28;20029;-72
2022/07/12 03:32:31;;;;;;;2.95;0.82;;;;;;;19.42;60.86;100990.69;5038137;28;20033;-72
2022/07/12 03:34:56;;;;;;;3.83;0.80;;;;;;;19.36;60.94;101004.16;5075089;28;20086;-72
2022/07/12 03:37:22;;;;;;;2.53;0.77;;;;;;;19.35;60.29;101005.28;5021293;28;20477;-72
2022/07/12 03:39:47;;;;;;;4.13;0.80;;;;;;;19.34;60.36;101006.47;5068510;28;20032;-72
2022/07/12 03:42:13;;;;;;;3.10;1.00;;;;;;;19.31;60.32;101012.78;5054511;28;20029;-72
2022/07/12 03:44:38;;;;;;;5.47;0.95;;;;;;;19.28;60.19;101015.44;5020562;28;20024;-72
2022/07/12 03:47:04;;;;;;;1.70;0.90;;;;;;;19.26;60.99;101010.16;5052166;28;20113;-72
2022/07/12 03:49:29;;;;;;;4.50;0.70;;;;;;;19.24;60.80;101012.50;5066453;28;20029;-72
2022/07/12 03:51:55;;;;;;;1.30;0.82;;;;;;;19.21;61.17;101010.34;5057715;28;20024;-72
2022/07/12 03:54:20;;;;;;;2.63;1.08;;;;;;;19.19;61.05;101013.53;5037810;28;20032;-71
2022/07/12 03:59:30;;;;;;;3.35;0.90;;;;;;;19.11;61.53;101005.97;5055591;28;20500;-72
2022/07/12 04:01:55;;;;;;;1.15;1.00;;;;;;;19.15;61.20;101015.38;5057632;28;20024;-72
2022/07/12 04:04:21;;;;;;;2.90;0.93;;;;;;;19.12;61.41;101013.22;5057501;28;20134;-72
2022/07/12 04:06:46;;;;;;;1.30;0.90;;;;;;;19.10;60.97;101017.53;5041109;28;20047;-72
2022/07/12 04:09:12;;;;;;;1.77;0.85;;;;;;;19.06;61.38;101019.41;5041241;28;20033;-72
2022/07/12 04:11:37;;;;;;;1.33;0.93;;;;;;;19.06;61.77;101025.03;5042930;28;20652;-72
2022/07/12 04:14:03;;;;;;;2.00;0.85;;;;;;;19.02;61.68;101015.59;5070450;28;20033;-72
2022/07/12 04:16:29;;;;;;;1.90;0.88;;;;;;;19.02;62.23;101035.31;5024439;28;20024;-72
2022/07/12 04:18:55;;;;;;;1.75;0.82;;;;;;;18.98;62.47;101030.34;5035921;28;20025;-72
2022/07/12 04:21:21;;;;;;;3.70;1.00;;;;;;;18.95;62.23;101031.03;5056923;28;20096;-71
2022/07/12 04:23:46;;;;;;;2.45;1.23;;;;;;;18.95;62.93;101030.22;5041033;28;20060;-72
2022/07/12 04:26:12;;;;;;;3.00;1.00;;;;;;;18.91;62.07;101041.31;5061150;28;20028;-72
2022/07/12 04:28:37;;;;;;;1.20;0.80;;;;;;;18.90;62.62;101038.84;5061393;28;20428;-71
2022/07/12 04:31:03;;;;;;;2.80;1.58;;;;;;;18.88;62.48;101041.97;5040911;28;20029;-72
2022/07/12 04:33:28;;;;;;;5.22;1.05;;;;;;;18.85;62.52;101047.47;5070387;28;20078;-72
2022/07/12 04:35:54;;;;;;;2.67;1.10;;;;;;;18.87;63.47;101045.16;5061066;28;20031;-72
2022/07/12 04:38:19;;;;;;;2.53;1.05;;;;;;;18.85;63.57;101045.47;5061237;28;20469;-72
2022/07/12 04:40:45;;;;;;;2.25;1.08;;;;;;;18.85;64.62;101048.28;5026840;28;20497;-72
2022/07/12 04:43:10;;;;;;;1.73;1.00;;;;;;;18.91;63.82;101046.09;5027673;28;20028;-72
2022/07/12 04:45:36;;;;;;;4.53;1.00;;;;;;;18.91;64.48;101044.13;5040671;28;20082;-72
2022/07/12 04:48:02;;;;;;;3.50;1.00;;;;;;;18.93;64.89;101044.59;5072865;28;20029;-72
2022/07/12 04:50:27;;;;;;;3.67;1.02;;;;;;;19.01;65.13;101039.28;5042040;28;20024;-72
2022/07/12 04:52:53;;;;;;;2.35;1.15;;;;;;;19.06;65.69;101037.13;5027202;28;20028;-72
2022/07/12 04:55:18;;;;;;;2.10;1.10;;;;;;;19.14;65.41;101035.44;5040742;28;20045;-72
2022/07/12 04:57:43;;;;;;;2.97;1.05;;;;;;;19.23;66.49;101033.38;5075851;28;20033;-72
2022/07/12 05:00:10;;;;;;;1.13;0.90;;;;;;;19.33;67.62;101027.34;5057428;28;20025;-72
2022/07/12 05:02:35;;;;;;;3.85;0.90;;;;;;;19.47;67.32;101026.25;5077524;28;20071;-72
2022/07/12 05:05:01;;;;;;;1.25;1.00;;;;;;;19.59;65.54;101026.34;5078182;28;20029;-72
2022/07/12 05:07:26;;;;;;;1.98;1.10;;;;;;;19.73;63.51;101031.75;5078222;28;20025;-72
2022/07/12 05:09:52;;;;;;;3.40;1.17;;;;;;;19.89;66.71;101035.56;5060809;28;20039;-72
2022/07/12 05:12:18;;;;;;;3.58;1.00;;;;;;;20.02;65.75;101034.47;5060250;28;20032;-72
2022/07/12 05:14:43;;;;;;;2.20;1.00;;;;;;;20.19;63.60;101032.66;5059949;28;20039;-72
2022/07/12 05:17:09;;;;;;;1.50;0.98;;;;;;;20.36;63.20;101042.94;5040521;28;20025;-72
2022/07/12 05:19:35;;;;;;;1.98;1.10;;;;;;;20.52;63.65;101046.75;5072378;28;20032;-72
2022/07/12 05:22:02;;;;;;;1.65;1.20;;;;;;;20.70;62.00;101042.59;5060090;28;20032;-72
2022/07/12 05:24:27;;;;;;;1.40;0.90;;;;;;;20.89;59.94;101041.19;5076378;28;20436;-72
2022/07/12 05:26:53;;;;;;;1.85;0.80;;;;;;;21.06;59.81;101038.19;5060332;28;20078;-72
2022/07/12 05:29:18;;;;;;;2.95;1.02;;;;;;;21.25;58.56;101031.91;5023346;28;20477;-72
2022/07/12 05:31:44;;;;;;;2.42;0.90;;;;;;;21.45;58.39;101044.28;5037168;28;20028;-72
2022/07/12 05:34:09;;;;;;;4.15;0.90;;;;;;;21.62;58.21;101043.22;5056311;28;20071;-72
2022/07/12 05:36:35;;;;;;;2.15;1.02;;;;;;;21.81;57.36;101043.41;5075875;28;20025;-72
2022/07/12 05:39:00;;;;;;;2.03;0.90;;;;;;;22.00;56.96;101030.59;5059877;28;20040;-72
2022/07/12 05:41:26;;;;;;;3.30;1.00;;;;;;;22.19;56.62;101039.28;5057086;28;20413;-72
2022/07/12 05:43:51;;;;;;;1.33;0.80;;;;;;;22.38;56.42;101030.13;5042902;28;20032;-72
2022/07/12 05:46:16;;;;;;;1.77;1.10;;;;;;;22.57;57.36;101035.09;5076281;28;20054;-72
2022/07/12 05:48:42;;;;;;;2.45;0.93;;;;;;;22.76;55.44;101031.50;5056808;28;20032;-72
2022/07/12 05:53:51;;;;;;;2.13;0.88;;;;;;;23.15;54.76;101046.72;5061387;28;20067;-72
2022/07/12 05:56:17;;;;;;;0.93;0.73;;;;;;;23.34;54.70;101051.63;5075908;28;20048;-72
2022/07/12 05:58:42;;;;;;;4.32;0.80;;;;;;;23.53;54.48;101047.22;5058750;28;20036;-72
2022/07/12 06:01:08;;;;;;;2.40;0.90;;;;;;;23.72;54.24;101050.09;5059570;28;20020;-72
2022/07/12 06:03:33;;;;;;;3.08;0.80;;;;;;;23.90;53.99;101044.81;5026116;28;20085;-72
2022/07/12 06:05:59;;;;;;;2.08;0.90;;;;;;;24.07;53.71;101052.06;5059203;28;20055;-72
2022/07/12 06:08:25;;;;;;;3.38;0.90;;;;;;;24.24;53.17;101054.47;5075430;28;20029;-72
2022/07/12 06:10:50;;;;;;;4.10;0.88;;;;;;;24.44;52.58;101055.31;5075848;28;20025;-72
2022/07/12 06:13:15;;;;;;;1.23;0.70;;;;;;;24.60;52.85;101052.38;5022860;28;20033;-72
2022/07/12 06:15:41;;;;;;;2.55;0.90;;;;;;;24.81;52.35;101051.94;5053397;28;20058;-72
2022/07/12 06:18:07;;;;;;;4.20;0.80;;;;;;;25.01;51.68;101058.34;5042259;28;20036;-72
2022/07/12 06:20:32;;;;;;;1.90;0.93;;;;;;;25.17;51.90;101064.75;5058839;28;20484;-66
2022/07/12 06:22:58;;;;;;;4.60;0.80;;;;;;;25.32;50.89;101065.81;5075803;28;20122;-67
2022/07/12 06:25:23;;;;;;;1.25;0.90;;;;;;;25.51;50.60;101067.72;5023354;28;20029;-67
2022/07/12 06:27:49;;;;;;;5.50;0.90;;;;;;;25.67;50.61;101070.41;5055657;28;20029;-67
2022/07/12 06:30:18;;;;;;;2.95;0.80;;;;;;;25.87;50.13;101073.16;5056224;28;20029;-67
2022/07/12 06:32:45;;;;;;;2.78;0.80;;;;;;;26.05;49.68;101069.34;5058594;28;20120;-67
2022/07/12 06:35:10;;;;;;;1.95;0.90;;;;;;;26.24;49.21;101076.91;5058762;28;20020;-67
2022/07/12 06:37:36;;;;;;;4.03;0.98;;;;;;;26.40;49.32;101079.53;5055450;28;20032;-67
2022/07/12 06:40:01;;;;;;;1.90;0.70;;;;;;;26.56;48.96;101082.19;5071783;28;20028;-67
2022/07/12 06:42:27;;;;;;;1.00;0.70;;;;;;;26.76;48.56;101074.25;5056363;28;20456;-67
2022/07/12 06:44:52;;;;;;;3.00;0.77;;;;;;;26.92;48.42;101080.53;5057919;28;20043;-67
2022/07/12 06:47:18;;;;;;;4.80;0.70;;;;;;;27.11;48.50;101081.53;5041615;28;20035;-67
2022/07/12 06:49:43;;;;;;;3.38;0.80;;;;;;;27.25;47.83;101084.53;5049367;28;20040;-67
2022/07/12 06:52:09;;;;;;;1.95;0.70;;;;;;;27.47;47.33;101084.66;5038592;28;20033;-67
2022/07/12 06:54:34;;;;;;;4.28;0.85;;;;;;;27.59;46.91;101084.38;5091325;28;20029;-67
2022/07/12 06:57:00;;;;;;;2.40;0.70;;;;;;;27.73;46.62;101087.31;5057999;28;20060;-67
2022/07/12 06:59:25;;;;;;;2.78;0.63;;;;;;;27.85;46.30;101081.28;5075020;28;20028;-67
2022/07/12 07:01:52;;;;;;;2.17;0.70;;;;;;;28.01;45.71;101085.88;5054972;28;20032;-68
2022/07/12 07:04:17;;;;;;;3.60;0.90;;;;;;;28.10;45.36;101089.16;5087967;28;20683;-67
2022/07/12 07:06:43;;;;;;;5.68;0.75;;;;;;;28.21;45.32;101087.19;5068960;28;20116;-67
2022/07/12 07:09:08;;;;;;;3.42;0.50;;;;;;;28.36;45.17;101084.38;5036768;28;20060;-68
2022/07/12 07:11:35;;;;;;;8.80;0.60;;;;;;;28.44;45.07;101091.78;5074977;28;20041;-68
2022/07/12 07:14:01;;;;;;;2.03;0.60;;;;;;;28.56;44.63;101102.84;5058242;28;20028;-67
2022/07/12 07:16:26;;;;;;;6.15;0.80;;;;;;;28.63;44.59;101102.88;5058137;28;20037;-67
2022/07/12 07:18:52;;;;;;;1.63;0.60;;;;;;;28.71;44.89;101103.72;5071786;28;20036;-67
2022/07/12 07:21:17;;;;;;;5.70;0.70;;;;;;;28.86;44.09;101105.38;5054472;28;20025;-67
2022/07/12 07:23:43;;;;;;;3.70;0.80;;;;;;;28.98;44.00;101112.75;5070372;28;20047;-67
2022/07/12 07:26:08;;;;;;;2.85;0.60;;;;;;;29.12;43.58;101109.94;5054853;28;20021;-67
2022/07/12 07:30:51;;;;;;;4.22;0.73;;;;;;;29.24;43.40;101116.47;5057438;28;20029;-67
2022/07/12 07:31:19;;;;;;;4.03;0.80;;;;;;;29.34;43.65;101107.91;5073119;28;20400;-67
2022/07/12 07:33:46;;;;;;;2.30;0.60;;;;;;;29.48;42.86;101109.13;5057764;28;20024;-67
2022/07/12 07:36:11;;;;;;;2.58;0.60;;;;;;;29.56;43.17;101111.56;5057765;28;20058;-67
2022/07/12 07:38:37;;;;;;;3.55;0.60;;;;;;;29.71;42.63;101120.16;5074648;28;20477;-68
2022/07/12 07:41:02;;;;;;;2.53;0.65;;;;;;;29.87;42.88;101108.28;5070849;28;20040;-67
2022/07/12 07:43:28;;;;;;;4.40;0.85;;;;;;;30.02;41.96;101116.41;5073157;28;20029;-67
2022/07/12 07:45:53;;;;;;;2.30;0.52;;;;;;;30.19;41.85;101122.50;5074621;28;20513;-67
2022/07/12 07:48:18;;;;;;;3.08;0.70;;;;;;;30.32;41.71;101120.03;5074143;28;20028;-68
2022/07/12 07:50:44;;;;;;;5.05;0.90;;;;;;;30.43;41.07;101117.94;5052867;28;20029;-67
2022/07/12 07:53:10;;;;;;;3.50;0.50;;;;;;;30.56;41.27;101115.41;5024618;28;20640;-67
2022/07/12 07:55:35;;;;;;;5.70;0.60;;;;;;;30.66;40.95;101126.00;5046525;28;20049;-67
2022/07/12 07:58:00;;;;;;;3.97;0.85;;;;;;;30.76;40.90;101116.53;5057530;28;20024;-67
2022/07/12 08:00:26;;;;;;;7.03;0.70;;;;;;;30.87;40.75;101117.31;5061128;28;20029;-67
2022/07/12 08:02:54;;;;;;;2.67;0.40;;;;;;;30.98;40.57;101114.38;5061699;28;20045;-68
2022/07/12 08:05:20;;;;;;;5.97;0.80;;;;;;;31.15;40.41;101119.16;5078013;28;20120;-67
2022/07/12 08:07:45;;;;;;;4.75;0.50;;;;;;;31.25;39.82;101117.44;5078119;28;20032;-67
2022/07/12 08:10:11;;;;;;;2.80;0.80;;;;;;;31.42;39.67;101120.59;5041808;28;20025;-68
2022/07/12 08:12:36;;;;;;;2.38;0.43;;;;;;;31.53;39.61;101121.31;5061550;28;20404;-68
2022/07/12 08:15:01;;;;;;;2.05;0.60;;;;;;;31.64;39.63;101113.44;5041489;28;20025;-67
2022/07/12 08:17:27;;;;;;;2.53;0.40;;;;;;;31.77;39.49;101119.47;5045016;28;20028;-67
2022/07/12 08:19:52;;;;;;;1.95;0.50;;;;;;;31.86;39.14;101119.78;5056180;28;20028;-67
2022/07/12 08:22:18;;;;;;;6.45;0.55;;;;;;;31.95;39.48;101119.28;5056648;28;20483;-67
2022/07/12 08:24:43;;;;;;;4.32;0.60;;;;;;;32.06;39.13;101125.72;5077957;28;20036;-68
2022/07/12 08:27:09;;;;;;;3.05;0.50;;;;;;;32.20;39.02;101128.44;5044561;28;20468;-68
2022/07/12 08:29:34;;;;;;;2.00;0.50;;;;;;;32.26;39.02;101129.63;5061103;28;20029;-68
2022/07/12 08:32:00;;;;;;;4.57;0.60;;;;;;;32.42;38.45;101133.94;5044475;28;20031;-67
2022/07/12 08:34:25;;;;;;;4.18;0.57;;;;;;;32.59;37.96;101134.97;5077227;28;20035;-68
2022/07/12 08:36:51;;;;;;;5.50;0.60;;;;;;;32.70;37.04;101136.44;5024794;28;20029;-67
2022/07/12 08:39:17;;;;;;;5.03;0.57;;;;;;;32.84;38.39;101132.56;5077470;28;20044;-67
2022/07/12 08:41:42;;;;;;;3.33;0.52;;;;;;;33.01;37.44;101139.31;5044143;28;20032;-67
2022/07/12 08:44:08;;;;;;;2.45;0.30;;;;;;;33.14;37.59;101134.59;5077448;28;20044;-68
2022/07/12 08:46:33;;;;;;;2.17;0.60;;;;;;;33.26;37.59;101136.03;5074130;28;20485;-68
2022/07/12 08:49:07;;;;;;;3.53;0.50;;;;;;;33.36;36.63;101126.44;5059644;28;20084;-68
2022/07/12 08:51:32;;;;;;;3.45;0.50;;;;;;;33.48;37.12;101124.97;5059892;28;20021;-67
2022/07/12 08:54:12;;;;;;;1.95;0.60;;;;;;;33.59;36.92;101134.28;5057307;28;20087;-68
2022/07/12 08:56:39;;;;;;;2.92;0.47;;;;;;;33.68;36.76;101135.78;5069888;28;20049;-68
2022/07/12 08:59:18;;;;;;;3.20;0.43;;;;;;;33.83;36.62;101134.28;5074983;28;20036;-67
2022/07/12 09:01:51;;;;;;;3.28;0.57;;;;;;;33.96;36.23;101134.44;5057112;28;20395;-67
2022/07/12 09:04:22;;;;;;;2.85;0.50;;;;;;;34.14;35.99;101134.13;5054658;28;20056;-68
2022/07/12 09:06:47;;;;;;;3.63;0.60;;;;;;;34.26;36.26;101125.59;5056966;28;20124;-67
2022/07/12 09:09:37;;;;;;;4.10;0.50;;;;;;;34.36;34.89;101129.53;5059999;28;20063;-68
2022/07/12 09:12:03;;;;;;;3.65;0.60;;;;;;;34.50;34.29;101121.84;5075761;28;20094;-67
2022/07/12 09:14:28;;;;;;;3.55;0.50;;;;;;;34.57;33.51;101121.69;5049015;28;20080;-67
2022/07/12 09:17:09;;;;;;;3.00;0.65;;;;;;;34.68;35.00;101133.81;5076627;28;20032;-67
2022/07/12 09:19:34;;;;;;;5.07;0.70;;;;;;;34.76;33.56;101141.03;5025698;28;20121;-68
2022/07/12 09:22:00;;;;;;;4.60;0.60;;;;;;;34.71;33.08;101130.03;5060115;28;20029;-67
2022/07/12 09:24:26;;;;;;;2.47;0.50;;;;;;;34.79;33.40;101134.38;5043488;28;20021;-67
2022/07/12 09:27:04;;;;;;;2.85;0.80;;;;;;;34.92;32.52;101138.19;5057625;28;20032;-68
2022/07/12 09:29:30;;;;;;;3.90;0.60;;;;;;;34.90;31.48;101137.03;5076708;28;20031;-67
2022/07/12 09:37:25;;;;;;;2.85;0.40;;;;;;;34.98;33.06;101140.56;5062488;28;20037;-68
2022/07/12 09:39:54;;;;;;;1.75;0.60;;;;;;;35.14;33.42;101140.63;5059933;28;20511;-67
2022/07/12 09:42:19;;;;;;;3.85;0.60;;;;;;;35.22;32.37;101138.38;5040279;28;20449;-68
2022/07/12 09:44:45;;;;;;;4.75;0.60;;;;;;;35.36;32.95;101138.81;5038974;28;20025;-67
2022/07/12 09:47:13;;;;;;;5.47;0.63;;;;;;;35.43;30.05;101143.59;5042259;28;20029;-68
2022/07/12 09:49:44;;;;;;;2.70;0.60;;;;;;;35.65;31.48;101143.06;5041570;28;20025;-67
2022/07/12 09:52:19;;;;;;;3.78;0.75;;;;;;;35.68;30.52;101140.09;5060259;28;20033;-67
2022/07/12 09:54:44;;;;;;;3.33;0.55;;;;;;;35.83;29.91;101137.63;5043079;28;20464;-67
2022/07/12 09:57:20;;;;;;;4.03;0.70;;;;;;;35.91;29.53;101147.75;5058942;28;20056;-67
2022/07/12 09:59:46;;;;;;;0.98;0.63;;;;;;;35.95;29.41;101138.97;5042659;28;20024;-69
2022/07/12 10:02:15;;;;;;;3.40;0.75;;;;;;;35.99;29.53;101140.47;5075530;28;20028;-70
2022/07/12 10:04:40;;;;;;;3.30;0.70;;;;;;;36.01;28.68;101134.25;5055155;28;20025;-70
2022/07/12 10:07:06;;;;;;;2.22;0.55;;;;;;;36.06;29.84;101148.16;5059104;28;20032;-70
2022/07/12 10:09:31;;;;;;;2.33;0.70;;;;;;;36.11;28.90;101136.06;5058778;28;20036;-70
2022/07/12 10:11:57;;;;;;;1.90;0.50;;;;;;;36.20;29.14;101139.09;5055799;28;20033;-68
2022/07/12 10:14:22;;;;;;;1.58;0.57;;;;;;;36.23;28.86;101138.16;5051026;28;20020;-69
2022/07/12 10:16:50;;;;;;;1.70;0.60;;;;;;;36.27;28.54;101137.25;5059105;28;20024;-68
2022/07/12 10:19:25;;;;;;;1.95;0.70;;;;;;;36.26;28.87;101141.41;5075301;28;20032;-68
2022/07/12 10:21:51;;;;;;;1.55;0.60;;;;;;;36.33;28.24;101147.81;5066392;28;20067;-68
2022/07/12 10:24:32;;;;;;;4.03;0.75;;;;;;;36.45;28.05;101141.25;5033625;28;20563;-69
2022/07/12 10:27:13;;;;;;;4.22;0.60;;;;;;;36.60;28.38;101137.94;5076801;28;20028;-68
2022/07/12 10:29:39;;;;;;;2.95;0.70;;;;;;;36.68;28.90;101137.25;5073467;28;20031;-68
2022/07/12 10:32:19;;;;;;;2.00;0.50;;;;;;;36.74;28.16;101136.69;5056945;28;20669;-68
2022/07/12 10:34:55;;;;;;;1.30;0.60;;;;;;;36.72;27.50;101142.97;5075361;28;20036;-68
2022/07/12 10:37:21;;;;;;;2.83;0.63;;;;;;;36.73;26.70;101138.78;5057745;28;20060;-68
2022/07/12 10:40:14;;;;;;;3.60;0.47;;;;;;;36.78;27.46;101149.78;5055384;28;20504;-68
2022/07/12 10:42:41;;;;;;;4.13;0.60;;;;;;;36.95;26.70;101152.59;5074310;28;20085;-69
2022/07/12 10:45:14;;;;;;;3.33;0.60;;;;;;;37.03;26.02;101149.03;5041329;28;20032;-69
2022/07/12 10:48:03;;;;;;;1.05;0.50;;;;;;;37.11;25.42;101146.69;5041492;28;20052;-69
2022/07/12 10:50:41;;;;;;;5.40;0.50;;;;;;;37.09;26.26;101152.16;5068641;28;20496;-69
2022/07/12 10:53:19;;;;;;;2.03;0.45;;;;;;;37.15;25.64;101137.91;5069424;28;20071;-69
2022/07/12 10:56:22;;;;;;;2.40;0.50;;;;;;;37.21;26.14;101142.63;5072466;28;20060;-69
2022/07/12 10:58:59;;;;;;;2.58;0.50;;;;;;;37.27;25.75;101145.75;5075456;28;20031;-68
2022/07/12 11:01:29;;;;;;;2.42;0.60;;;;;;;37.25;26.01;101136.72;5041155;28;20028;-68
2022/07/12 11:04:03;;;;;;;1.92;0.50;;;;;;;37.25;26.06;101136.72;5074485;28;20554;-69
2022/07/12 11:06:29;;;;;;;2.75;0.40;;;;;;;37.17;26.43;101138.22;5058224;28;20035;-68
2022/07/12 11:08:59;;;;;;;1.77;0.43;;;;;;;37.21;25.44;101136.84;5058310;28;20032;-68
2022/07/12 11:11:32;;;;;;;4.53;0.35;;;;;;;37.08;26.00;101136.03;5055325;28;20037;-68
2022/07/12 11:13:59;;;;;;;1.60;0.40;;;;;;;37.07;25.90;101132.34;5057843;28;20409;-68
2022/07/12 11:16:24;;;;;;;1.83;0.40;;;;;;;37.21;25.93;101133.16;5091230;28;20032;-68
2022/07/12 11:18:50;;;;;;;4.43;0.47;;;;;;;37.22;25.30;101124.00;5045302;28;20025;-68
2022/07/12 11:21:16;;;;;;;1.85;0.50;;;;;;;37.29;25.42;101125.84;5066045;28;20097;-68
2022/07/12 11:23:41;;;;;;;2.15;0.40;;;;;;;37.41;25.76;101119.22;5057709;28;20068;-69
2022/07/12 11:26:07;;;;;;;2.15;0.50;;;;;;;37.52;25.90;101125.47;5057222;28;20028;-68
2022/07/12 11:28:32;;;;;;;1.55;0.52;;;;;;;37.58;25.64;101117.00;5074162;28;20028;-68
2022/07/12 11:31:12;;;;;;;1.88;0.70;;;;;;;37.65;24.77;101130.44;5057453;28;20033;-68
2022/07/12 11:33:46;;;;;;;1.77;0.30;;;;;;;37.83;24.72;101124.78;5074505;28;20047;-69